Time;durP1;ratioP1;P1;durP2;ratioP2;P2;SDS_P1;SDS_P2;PMS_P1;PMS_P2;Temp;Humidity;BMP_temperature;BMP_pressure;BME280_temperature;BME280_humidity;BME280_pressure;Samples;Min_cycle;Max_cycle;Signal;HPM_P1;HPM_P2
2023/06/05 00:01:42;;;;;;;;;4.00;1.00;;;;;;;;5077071;28;46338;-83
2023/06/05 00:04:07;;;;;;;;;1.75;1.00;;;;;;;;5075723;28;45412;-83
2023/06/05 00:06:33;;;;;;;;;0.67;0.00;;;;;;;;5077401;28;45346;-83
2023/06/05 00:08:58;;;;;;;;;1.00;1.00;;;;;;;;5077070;28;45268;-83
2023/06/05 00:11:23;;;;;;;;;1.00;1.00;;;;;;;;5076704;28;46177;-83
2023/06/05 00:13:49;;;;;;;;;4.50;1.00;;;;;;;;5076825;28;45247;-83
2023/06/05 00:16:15;;;;;;;;;1.50;0.00;;;;;;;;5077102;27;45301;-83
2023/06/05 00:18:40;;;;;;;;;2.25;1.50;;;;;;;;5077033;27;45307;-83
2023/06/05 00:21:05;;;;;;;;;1.75;0.00;;;;;;;;5076224;27;46277;-83
2023/06/05 00:23:30;;;;;;;;;4.00;1.00;;;;;;;;5076819;28;45306;-83
2023/06/05 00:25:56;;;;;;;;;1.67;1.00;;;;;;;;5076727;28;45407;-83
2023/06/05 00:28:23;;;;;;;;;1.00;1.00;;;;;;;;5076783;27;45337;-83
2023/06/05 00:30:49;;;;;;;;;2.00;0.00;;;;;;;;5076824;27;47537;-83
2023/06/05 00:33:14;;;;;;;;;3.00;1.00;;;;;;;;5076587;28;45501;-83
2023/06/05 00:35:39;;;;;;;;;1.00;1.00;;;;;;;;5077034;27;45367;-83
2023/06/05 00:38:06;;;;;;;;;1.00;1.00;;;;;;;;5076729;27;45409;-83
2023/06/05 00:40:31;;;;;;;;;2.25;1.00;;;;;;;;5076069;27;47225;-84
2023/06/05 00:42:57;;;;;;;;;1.50;1.00;;;;;;;;5075084;28;45384;-82
2023/06/05 00:45:22;;;;;;;;;1.00;0.00;;;;;;;;5076646;28;45560;-83
2023/06/05 00:47:47;;;;;;;;;1.00;1.00;;;;;;;;5076437;28;45357;-83
2023/06/05 00:50:14;;;;;;;;;5.67;1.00;;;;;;;;5076573;28;45540;-84
2023/06/05 00:52:40;;;;;;;;;1.00;1.00;;;;;;;;5076232;27;45387;-83
2023/06/05 00:55:06;;;;;;;;;0.50;0.50;;;;;;;;5076296;27;45417;-83
2023/06/05 00:57:34;;;;;;;;;2.25;1.00;;;;;;;;5076563;27;45502;-83
2023/06/05 00:59:59;;;;;;;;;1.00;1.00;;;;;;;;5076247;27;46457;-83
2023/06/05 01:02:27;;;;;;;;;3.00;1.00;;;;;;;;5076110;27;45306;-83
2023/06/05 01:04:52;;;;;;;;;0.50;0.50;;;;;;;;5076424;27;45379;-83
2023/06/05 01:07:18;;;;;;;;;1.00;0.00;;;;;;;;5076786;27;45440;-83
2023/06/05 01:09:44;;;;;;;;;3.25;1.00;;;;;;;;5075756;27;46625;-83
2023/06/05 01:12:26;;;;;;;;;4.50;1.00;;;;;;;;5075963;27;45289;-83
2023/06/05 01:14:56;;;;;;;;;1.25;1.25;;;;;;;;5074923;28;45324;-83
2023/06/05 01:17:24;;;;;;;;;1.00;1.00;;;;;;;;5076141;27;45306;-83
2023/06/05 01:19:49;;;;;;;;;1.00;1.00;;;;;;;;5075928;27;45496;-83
2023/06/05 01:22:15;;;;;;;;;1.50;0.00;;;;;;;;5074244;28;46252;-83
2023/06/05 01:24:41;;;;;;;;;1.75;1.00;;;;;;;;5075894;27;45394;-83
2023/06/05 01:27:15;;;;;;;;;5.00;2.00;;;;;;;;5075983;28;45309;-83
2023/06/05 01:29:56;;;;;;;;;1.00;1.00;;;;;;;;5075763;27;45503;-83
2023/06/05 01:32:40;;;;;;;;;2.00;1.00;;;;;;;;5075804;27;45271;-83
2023/06/05 01:35:07;;;;;;;;;1.25;0.75;;;;;;;;5078232;28;45403;-83
2023/06/05 01:37:40;;;;;;;;;2.00;1.00;;;;;;;;5079204;27;45454;-83
2023/06/05 01:40:06;;;;;;;;;2.50;2.00;;;;;;;;5079437;27;46686;-83
2023/06/05 01:42:32;;;;;;;;;5.25;2.25;;;;;;;;5079214;27;45386;-83
2023/06/05 01:44:57;;;;;;;;;1.00;1.00;;;;;;;;5079507;27;45270;-83
2023/06/05 01:47:23;;;;;;;;;0.75;0.00;;;;;;;;5079729;27;45137;-83
2023/06/05 01:49:48;;;;;;;;;1.00;1.00;;;;;;;;5079179;27;46988;-83
2023/06/05 01:52:13;;;;;;;;;1.00;1.00;;;;;;;;5078938;28;45364;-83
2023/06/05 01:54:39;;;;;;;;;1.00;1.00;;;;;;;;5079364;28;45382;-83
2023/06/05 01:57:04;;;;;;;;;1.00;1.00;;;;;;;;5079211;27;45729;-83
2023/06/05 01:59:29;;;;;;;;;2.25;0.25;;;;;;;;5079127;27;46654;-83
2023/06/05 02:01:54;;;;;;;;;2.00;1.00;;;;;;;;5079071;28;45355;-82
2023/06/05 02:04:20;;;;;;;;;3.00;0.67;;;;;;;;5079083;28;45338;-83
2023/06/05 02:06:45;;;;;;;;;1.00;0.50;;;;;;;;5078720;27;45581;-83
2023/06/05 02:09:12;;;;;;;;;1.00;1.00;;;;;;;;5078760;28;46328;-83
2023/06/05 02:11:38;;;;;;;;;2.00;2.00;;;;;;;;5079061;27;45709;-83
2023/06/05 02:14:04;;;;;;;;;1.50;1.50;;;;;;;;5078965;27;45483;-83
2023/06/05 02:16:30;;;;;;;;;0.00;0.00;;;;;;;;5078905;27;45403;-83
2023/06/05 02:18:57;;;;;;;;;2.00;2.00;;;;;;;;5078968;28;45411;-83
2023/06/05 02:21:22;;;;;;;;;3.25;1.00;;;;;;;;5078107;27;45754;-83
2023/06/05 02:23:47;;;;;;;;;3.67;1.00;;;;;;;;5078896;28;45320;-83
2023/06/05 02:26:12;;;;;;;;;1.33;0.00;;;;;;;;5078839;28;45331;-83
2023/06/05 02:28:37;;;;;;;;;1.00;1.00;;;;;;;;5078470;28;47395;-83
2023/06/05 02:31:04;;;;;;;;;0.00;0.00;;;;;;;;5078844;28;45681;-83
2023/06/05 02:33:29;;;;;;;;;2.25;2.00;;;;;;;;5078914;27;45292;-83
2023/06/05 02:35:56;;;;;;;;;1.00;1.00;;;;;;;;5078379;28;45380;-83
2023/06/05 02:38:21;;;;;;;;;0.75;0.00;;;;;;;;5078479;27;46344;-83
2023/06/05 02:40:46;;;;;;;;;3.00;1.00;;;;;;;;5078413;28;45504;-83
2023/06/05 02:43:11;;;;;;;;;4.75;1.00;;;;;;;;5078233;28;45287;-84
2023/06/05 02:45:37;;;;;;;;;1.00;1.00;;;;;;;;5078618;28;45319;-83
2023/06/05 02:48:02;;;;;;;;;2.67;2.00;;;;;;;;5078399;28;45625;-83
2023/06/05 02:50:27;;;;;;;;;3.50;1.00;;;;;;;;5077994;27;45393;-83
2023/06/05 02:52:52;;;;;;;;;1.00;1.00;;;;;;;;5078391;28;45434;-83
2023/06/05 02:55:18;;;;;;;;;1.00;1.00;;;;;;;;5078241;28;45529;-83
2023/06/05 02:57:44;;;;;;;;;1.33;1.00;;;;;;;;5078342;28;46256;-83
2023/06/05 03:00:14;;;;;;;;;1.00;1.00;;;;;;;;5078101;27;45700;-83
2023/06/05 03:02:39;;;;;;;;;1.75;1.00;;;;;;;;5078240;27;45381;-84
2023/06/05 03:05:05;;;;;;;;;2.00;2.00;;;;;;;;5077885;28;45313;-83
2023/06/05 03:07:30;;;;;;;;;1.00;1.00;;;;;;;;5078011;27;46464;-84
2023/06/05 03:09:55;;;;;;;;;1.00;1.00;;;;;;;;5078181;28;45304;-83
2023/06/05 03:12:20;;;;;;;;;1.00;1.00;;;;;;;;5077943;28;45384;-83
2023/06/05 03:14:45;;;;;;;;;2.00;2.00;;;;;;;;5077996;28;45513;-84
2023/06/05 03:17:11;;;;;;;;;6.67;2.00;;;;;;;;5077780;28;46268;-83
2023/06/05 03:19:36;;;;;;;;;2.33;1.00;;;;;;;;5077586;28;45275;-83
2023/06/05 03:22:01;;;;;;;;;1.00;1.00;;;;;;;;5078051;28;45483;-83
2023/06/05 03:24:27;;;;;;;;;1.00;1.00;;;;;;;;5077785;28;45486;-83
2023/06/05 03:26:52;;;;;;;;;2.25;1.25;;;;;;;;5077713;27;46335;-83
2023/06/05 03:29:17;;;;;;;;;2.00;2.00;;;;;;;;5077724;28;45405;-82
2023/06/05 03:31:42;;;;;;;;;7.00;2.00;;;;;;;;5077769;28;45382;-83
2023/06/05 03:34:08;;;;;;;;;6.00;1.00;;;;;;;;5077425;28;45516;-83
2023/06/05 03:36:34;;;;;;;;;2.75;2.00;;;;;;;;5076299;28;47158;-83
2023/06/05 03:38:59;;;;;;;;;2.00;2.00;;;;;;;;5077529;27;45390;-83
2023/06/05 03:41:25;;;;;;;;;3.00;1.00;;;;;;;;5077642;27;45396;-83
2023/06/05 03:43:51;;;;;;;;;3.00;1.25;;;;;;;;5077522;27;45383;-83
2023/06/05 03:46:19;;;;;;;;;1.00;1.00;;;;;;;;5077148;28;47023;-83
2023/06/05 03:48:45;;;;;;;;;2.00;2.00;;;;;;;;5077165;27;45310;-83
2023/06/05 03:51:10;;;;;;;;;2.00;2.00;;;;;;;;5077293;27;45307;-82
2023/06/05 03:53:39;;;;;;;;;1.00;1.00;;;;;;;;5077423;28;45351;-83
2023/06/05 03:56:05;;;;;;;;;2.50;1.75;;;;;;;;5076632;27;45582;-83
2023/06/05 03:58:30;;;;;;;;;4.00;1.25;;;;;;;;5077140;27;45825;-83
2023/06/05 04:00:56;;;;;;;;;1.00;1.00;;;;;;;;5077462;28;45356;-83
2023/06/05 04:03:21;;;;;;;;;2.50;1.50;;;;;;;;5076672;27;45473;-83
2023/06/05 04:05:46;;;;;;;;;2.50;2.00;;;;;;;;5076980;27;46041;-83
2023/06/05 04:08:11;;;;;;;;;2.00;1.00;;;;;;;;5077074;28;45281;-83
2023/06/05 04:10:37;;;;;;;;;2.00;2.00;;;;;;;;5077141;28;45265;-82
2023/06/05 04:13:02;;;;;;;;;2.00;2.00;;;;;;;;5076904;28;45228;-83
2023/06/05 04:15:28;;;;;;;;;2.00;1.00;;;;;;;;5076999;28;45325;-83
2023/06/05 04:17:53;;;;;;;;;4.25;1.50;;;;;;;;5076234;27;45233;-83
2023/06/05 04:20:18;;;;;;;;;3.00;1.50;;;;;;;;5077249;28;45358;-83
2023/06/05 04:22:45;;;;;;;;;2.25;1.25;;;;;;;;5076757;27;45320;-83
2023/06/05 04:25:12;;;;;;;;;2.75;2.00;;;;;;;;5076607;27;47305;-83
2023/06/05 04:27:40;;;;;;;;;3.00;1.00;;;;;;;;5076841;27;45563;-83
2023/06/05 04:30:07;;;;;;;;;3.75;2.75;;;;;;;;5076919;27;45442;-83
2023/06/05 04:32:36;;;;;;;;;4.50;1.50;;;;;;;;5076622;27;45472;-83
2023/06/05 04:35:02;;;;;;;;;2.00;1.75;;;;;;;;5076731;27;47116;-82
2023/06/05 04:37:28;;;;;;;;;2.50;2.00;;;;;;;;5076848;27;45443;-83
2023/06/05 04:39:53;;;;;;;;;2.33;2.33;;;;;;;;5077040;28;45280;-83
2023/06/05 04:42:18;;;;;;;;;3.00;2.00;;;;;;;;5076603;28;45352;-83
2023/06/05 04:44:43;;;;;;;;;2.00;1.50;;;;;;;;5076608;27;46669;-83
2023/06/05 04:47:09;;;;;;;;;2.75;2.75;;;;;;;;5076355;27;45427;-83
2023/06/05 04:49:35;;;;;;;;;2.50;2.00;;;;;;;;5076634;27;45364;-83
2023/06/05 04:52:00;;;;;;;;;2.75;2.00;;;;;;;;5076579;27;45414;-83
2023/06/05 04:54:25;;;;;;;;;2.00;2.00;;;;;;;;5076283;28;45279;-83
2023/06/05 04:56:51;;;;;;;;;5.67;2.00;;;;;;;;5076407;28;45389;-83
2023/06/05 04:59:16;;;;;;;;;5.00;4.00;;;;;;;;5076425;27;45379;-83
2023/06/05 05:01:41;;;;;;;;;1.00;1.00;;;;;;;;5076039;28;45304;-82
2023/06/05 05:04:06;;;;;;;;;2.00;2.00;;;;;;;;5076201;28;45380;-83
2023/06/05 05:06:33;;;;;;;;;4.67;2.67;;;;;;;;5076353;28;45324;-83
2023/06/05 05:08:59;;;;;;;;;3.50;2.25;;;;;;;;5075169;27;45274;-82
2023/06/05 05:11:24;;;;;;;;;4.75;2.00;;;;;;;;5076383;27;45995;-83
2023/06/05 05:13:49;;;;;;;;;4.25;3.00;;;;;;;;5075862;27;46265;-83
2023/06/05 05:16:15;;;;;;;;;3.00;2.00;;;;;;;;5075786;28;45518;-83
2023/06/05 05:18:41;;;;;;;;;3.00;2.75;;;;;;;;5076163;27;45376;-84
2023/06/05 05:21:06;;;;;;;;;2.75;0.00;;;;;;;;5076077;27;45271;-83
2023/06/05 05:23:32;;;;;;;;;6.50;3.00;;;;;;;;5076044;27;46383;-83
2023/06/05 05:25:57;;;;;;;;;3.75;2.00;;;;;;;;5076065;28;45420;-83
2023/06/05 05:28:22;;;;;;;;;4.67;2.67;;;;;;;;5076239;28;45224;-83
2023/06/05 05:30:47;;;;;;;;;4.75;2.25;;;;;;;;5075620;27;45382;-83
2023/06/05 05:33:14;;;;;;;;;3.00;3.00;;;;;;;;5075817;28;45468;-83
2023/06/05 05:35:39;;;;;;;;;4.25;3.50;;;;;;;;5076014;27;45860;-83
2023/06/05 05:38:04;;;;;;;;;4.67;3.00;;;;;;;;5076261;28;45517;-83
2023/06/05 05:40:29;;;;;;;;;4.67;2.00;;;;;;;;5076150;28;45447;-83
2023/06/05 05:42:55;;;;;;;;;6.50;2.00;;;;;;;;5075562;27;46401;-83
2023/06/05 05:45:20;;;;;;;;;3.00;2.00;;;;;;;;5075562;28;45360;-83
2023/06/05 05:47:45;;;;;;;;;3.67;3.67;;;;;;;;5075819;28;45281;-83
2023/06/05 05:50:10;;;;;;;;;3.00;3.00;;;;;;;;5075844;28;45340;-83
2023/06/05 05:52:35;;;;;;;;;4.00;3.00;;;;;;;;5074819;28;45595;-82
2023/06/05 05:55:03;;;;;;;;;3.00;3.00;;;;;;;;5075499;27;45547;-81
2023/06/05 05:57:28;;;;;;;;;3.00;3.00;;;;;;;;5075903;27;45272;-81
2023/06/05 05:59:53;;;;;;;;;5.75;4.50;;;;;;;;5062536;27;45520;-81
2023/06/05 06:02:20;;;;;;;;;5.00;3.33;;;;;;;;5055001;28;46439;-82
2023/06/05 06:04:46;;;;;;;;;4.00;4.00;;;;;;;;5055195;28;45779;-82
2023/06/05 06:07:11;;;;;;;;;4.25;3.00;;;;;;;;5057558;28;45292;-82
2023/06/05 06:09:36;;;;;;;;;5.00;3.00;;;;;;;;5058050;28;45427;-81
2023/06/05 06:12:05;;;;;;;;;5.33;2.67;;;;;;;;5067166;28;45784;-82
2023/06/05 06:14:31;;;;;;;;;6.50;4.25;;;;;;;;5067359;28;45519;-81
2023/06/05 06:16:57;;;;;;;;;3.50;3.00;;;;;;;;5063477;28;46520;-81
2023/06/05 06:19:23;;;;;;;;;5.00;3.00;;;;;;;;5080462;27;45753;-91
2023/06/05 06:21:51;;;;;;;;;4.75;3.00;;;;;;;;5078441;28;47181;-81
2023/06/05 06:24:18;;;;;;;;;5.50;3.00;;;;;;;;5087532;27;45694;-83
2023/06/05 06:26:44;;;;;;;;;6.50;3.00;;;;;;;;5078202;27;45523;-82
2023/06/05 06:29:09;;;;;;;;;3.25;3.25;;;;;;;;5076505;27;45422;-83
2023/06/05 06:31:34;;;;;;;;;4.33;3.00;;;;;;;;5078208;27;46329;-81
2023/06/05 06:33:59;;;;;;;;;3.00;3.00;;;;;;;;5069305;28;45569;-81
2023/06/05 06:36:26;;;;;;;;;4.75;4.00;;;;;;;;5059336;28;45575;-79
2023/06/05 06:38:51;;;;;;;;;6.75;3.00;;;;;;;;5058256;28;45566;-81
2023/06/05 06:41:17;;;;;;;;;3.00;3.00;;;;;;;;5066161;28;47057;-81
2023/06/05 06:43:42;;;;;;;;;4.25;3.00;;;;;;;;5070804;28;45438;-81
2023/06/05 06:46:07;;;;;;;;;3.67;3.00;;;;;;;;5076960;27;45320;-81
2023/06/05 06:48:33;;;;;;;;;4.67;3.00;;;;;;;;5064166;27;45366;-81
2023/06/05 06:50:58;;;;;;;;;4.00;3.75;;;;;;;;5057864;28;46102;-82
2023/06/05 06:53:23;;;;;;;;;3.67;3.00;;;;;;;;5060013;28;45462;-80
2023/06/05 06:55:48;;;;;;;;;4.67;3.00;;;;;;;;5058612;28;45271;-80
2023/06/05 06:58:14;;;;;;;;;5.00;4.00;;;;;;;;5061047;27;45276;-82
2023/06/05 07:00:40;;;;;;;;;4.75;2.50;;;;;;;;5072871;28;46410;-81
2023/06/05 07:03:05;;;;;;;;;4.75;2.25;;;;;;;;5066706;27;45665;-81
2023/06/05 07:05:31;;;;;;;;;4.00;3.00;;;;;;;;5058012;28;45384;-80
2023/06/05 07:08:00;;;;;;;;;3.00;2.67;;;;;;;;5057931;28;45356;-81
2023/06/05 07:10:25;;;;;;;;;6.00;3.50;;;;;;;;5056939;28;45395;-81
2023/06/05 07:12:51;;;;;;;;;4.00;4.00;;;;;;;;5062290;28;45288;-81
2023/06/05 07:15:16;;;;;;;;;4.33;3.00;;;;;;;;5069659;28;45481;-81
2023/06/05 07:17:41;;;;;;;;;7.00;3.00;;;;;;;;5057668;28;45456;-81
2023/06/05 07:20:08;;;;;;;;;5.00;3.00;;;;;;;;5057327;28;45410;-80
2023/06/05 07:22:33;;;;;;;;;7.50;3.00;;;;;;;;5058839;28;45407;-81
2023/06/05 07:24:58;;;;;;;;;5.00;2.67;;;;;;;;5071926;27;45388;-81
2023/06/05 07:27:23;;;;;;;;;5.00;0.00;;;;;;;;5057406;28;45232;-81
2023/06/05 07:29:48;;;;;;;;;6.00;3.00;;;;;;;;5069601;28;47307;-82
2023/06/05 07:32:14;;;;;;;;;7.00;4.00;;;;;;;;5076354;27;45308;-80
2023/06/05 07:34:39;;;;;;;;;4.00;2.00;;;;;;;;5057706;27;45719;-81
2023/06/05 07:37:07;;;;;;;;;2.00;2.00;;;;;;;;5057730;28;45332;-81
2023/06/05 07:39:32;;;;;;;;;6.00;3.00;;;;;;;;5056906;28;46913;-81
2023/06/05 07:41:58;;;;;;;;;4.00;3.00;;;;;;;;5057057;28;45434;-81
2023/06/05 07:44:23;;;;;;;;;4.75;2.25;;;;;;;;5057398;28;45439;-81
2023/06/05 07:46:49;;;;;;;;;3.00;3.00;;;;;;;;5057118;28;45541;-81
2023/06/05 07:49:15;;;;;;;;;6.00;2.00;;;;;;;;5056948;28;46429;-82
2023/06/05 07:51:42;;;;;;;;;2.25;2.25;;;;;;;;5057280;28;45321;-81
2023/06/05 07:54:09;;;;;;;;;4.50;4.50;;;;;;;;5056640;28;45297;-81
2023/06/05 07:56:34;;;;;;;;;3.00;2.00;;;;;;;;5056930;28;45296;-81
2023/06/05 07:59:03;;;;;;;;;3.00;3.00;;;;;;;;5056993;28;45948;-81
2023/06/05 08:01:29;;;;;;;;;7.25;3.00;;;;;;;;5056784;28;45826;-82
2023/06/05 08:03:55;;;;;;;;;8.50;2.75;;;;;;;;5070087;28;45501;-81
2023/06/05 08:06:20;;;;;;;;;5.00;3.00;;;;;;;;5059948;27;45511;-81
2023/06/05 08:08:46;;;;;;;;;3.75;3.00;;;;;;;;5056214;28;46456;-81
2023/06/05 08:11:11;;;;;;;;;6.00;2.00;;;;;;;;5063855;28;45476;-81
2023/06/05 08:13:36;;;;;;;;;3.00;3.00;;;;;;;;5076931;27;45289;-81
2023/06/05 08:16:02;;;;;;;;;8.50;3.00;;;;;;;;5077074;27;45355;-81
2023/06/05 08:18:27;;;;;;;;;1.00;1.00;;;;;;;;5058660;27;46204;-81
2023/06/05 08:20:52;;;;;;;;;5.33;3.00;;;;;;;;5056557;28;45367;-80
2023/06/05 08:23:17;;;;;;;;;4.33;4.00;;;;;;;;5057491;28;45543;-82
2023/06/05 08:25:43;;;;;;;;;2.33;2.00;;;;;;;;5074791;27;45609;-80
2023/06/05 08:28:08;;;;;;;;;2.00;2.00;;;;;;;;5071609;27;46889;-79
2023/06/05 08:30:33;;;;;;;;;2.67;2.67;;;;;;;;5075088;28;45399;-80
2023/06/05 08:32:58;;;;;;;;;2.00;2.00;;;;;;;;5075847;28;45313;-80
2023/06/05 08:35:24;;;;;;;;;4.67;3.00;;;;;;;;5076055;27;45441;-80
2023/06/05 08:37:49;;;;;;;;;4.00;2.50;;;;;;;;5073880;27;47123;-79
2023/06/05 08:40:18;;;;;;;;;4.50;4.25;;;;;;;;5075738;27;45267;-79
2023/06/05 08:42:43;;;;;;;;;2.00;1.50;;;;;;;;5075243;27;45676;-79
2023/06/05 08:45:08;;;;;;;;;3.00;2.33;;;;;;;;5075393;27;45527;-80
2023/06/05 08:47:38;;;;;;;;;2.00;2.00;;;;;;;;5075591;27;45473;-79
2023/06/05 08:50:04;;;;;;;;;1.75;1.75;;;;;;;;5067554;27;45737;-80
2023/06/05 08:52:32;;;;;;;;;4.00;3.00;;;;;;;;5067519;27;45276;-81
2023/06/05 08:54:58;;;;;;;;;7.25;3.00;;;;;;;;5075577;27;45474;-81
2023/06/05 08:57:23;;;;;;;;;5.75;3.00;;;;;;;;5071105;27;47146;-81
2023/06/05 08:59:49;;;;;;;;;8.67;6.00;;;;;;;;5075017;27;45531;-81
2023/06/05 09:02:14;;;;;;;;;5.50;3.75;;;;;;;;5075225;27;45558;-81
2023/06/05 09:04:40;;;;;;;;;3.67;3.67;;;;;;;;5075262;27;45449;-81
2023/06/05 09:07:06;;;;;;;;;2.00;2.00;;;;;;;;5074829;27;46288;-81
2023/06/05 09:09:32;;;;;;;;;2.00;2.00;;;;;;;;5074744;27;45304;-81
2023/06/05 09:12:02;;;;;;;;;3.25;3.00;;;;;;;;5074982;27;45238;-81
2023/06/05 09:14:27;;;;;;;;;3.00;3.00;;;;;;;;5070867;27;45510;-81
2023/06/05 09:16:52;;;;;;;;;3.00;2.00;;;;;;;;5067230;28;46547;-80
2023/06/05 09:19:19;;;;;;;;;4.67;3.00;;;;;;;;5074756;27;45305;-80
2023/06/05 09:21:51;;;;;;;;;6.00;3.00;;;;;;;;5074878;27;45537;-80
2023/06/05 09:24:18;;;;;;;;;5.00;2.00;;;;;;;;5075143;27;45522;-80
2023/06/05 09:26:58;;;;;;;;;4.00;2.75;;;;;;;;5074790;27;46174;-80
2023/06/05 09:29:30;;;;;;;;;7.00;3.00;;;;;;;;5075114;27;45722;-79
2023/06/05 09:31:59;;;;;;;;;1.00;1.00;;;;;;;;5069359;27;45443;-81
2023/06/05 09:34:25;;;;;;;;;2.00;2.00;;;;;;;;5074888;27;45417;-81
2023/06/05 09:36:50;;;;;;;;;6.00;4.50;;;;;;;;5074084;27;46870;-81
2023/06/05 09:39:16;;;;;;;;;3.75;2.00;;;;;;;;5074258;28;45473;-81
2023/06/05 09:41:45;;;;;;;;;3.75;3.00;;;;;;;;5074605;27;45459;-81
2023/06/05 09:44:11;;;;;;;;;5.25;3.00;;;;;;;;5074816;27;45537;-81
2023/06/05 09:46:54;;;;;;;;;5.00;3.25;;;;;;;;5074616;27;47105;-82
2023/06/05 09:49:20;;;;;;;;;5.00;3.75;;;;;;;;5074139;27;45485;-80
2023/06/05 09:51:46;;;;;;;;;4.00;2.50;;;;;;;;5074186;27;45380;-80
2023/06/05 09:54:12;;;;;;;;;4.00;2.00;;;;;;;;5075437;27;45808;-81
2023/06/05 09:56:39;;;;;;;;;3.00;2.00;;;;;;;;5078095;27;46110;-80
2023/06/05 09:59:05;;;;;;;;;3.00;2.00;;;;;;;;5077851;27;45804;-81
2023/06/05 10:01:33;;;;;;;;;2.75;2.75;;;;;;;;5076522;27;45450;-82
2023/06/05 10:04:04;;;;;;;;;4.75;4.00;;;;;;;;5077888;27;45422;-81
2023/06/05 10:06:32;;;;;;;;;1.00;1.00;;;;;;;;5076914;27;46570;-81
2023/06/05 10:08:57;;;;;;;;;1.50;1.50;;;;;;;;5075253;27;45648;-81
2023/06/05 10:11:23;;;;;;;;;2.50;1.50;;;;;;;;5077715;27;45695;-81
2023/06/05 10:13:49;;;;;;;;;3.50;1.50;;;;;;;;5074638;27;45435;-81
2023/06/05 10:16:16;;;;;;;;;2.75;2.75;;;;;;;;5075511;27;45519;-82
2023/06/05 10:18:41;;;;;;;;;1.75;1.75;;;;;;;;5077129;27;45873;-82
2023/06/05 10:21:06;;;;;;;;;3.25;1.25;;;;;;;;5076945;27;45441;-81
2023/06/05 10:23:32;;;;;;;;;2.25;2.25;;;;;;;;5077467;27;45579;-81
2023/06/05 10:25:58;;;;;;;;;2.75;1.75;;;;;;;;5077506;27;46093;-82
2023/06/05 10:28:35;;;;;;;;;3.00;2.00;;;;;;;;5076908;27;45575;-81
2023/06/05 10:31:26;;;;;;;;;2.50;1.00;;;;;;;;5076814;27;45314;-81
2023/06/05 10:34:09;;;;;;;;;1.75;1.50;;;;;;;;5071845;27;45411;-81
2023/06/05 10:36:40;;;;;;;;;1.75;1.75;;;;;;;;5077308;27;46925;-82
2023/06/05 10:39:05;;;;;;;;;2.50;1.75;;;;;;;;5077126;27;45788;-81
2023/06/05 10:41:31;;;;;;;;;4.00;2.25;;;;;;;;5077163;27;45427;-81
2023/06/05 10:43:56;;;;;;;;;2.33;2.33;;;;;;;;5077455;27;45294;-82
2023/06/05 10:46:34;;;;;;;;;4.00;2.00;;;;;;;;5077239;27;45521;-81
2023/06/05 10:49:17;;;;;;;;;4.50;3.00;;;;;;;;5077395;27;45405;-81
2023/06/05 10:51:43;;;;;;;;;3.00;2.00;;;;;;;;5077048;27;45476;-81
2023/06/05 10:54:09;;;;;;;;;6.25;3.25;;;;;;;;5077356;27;46784;-82
2023/06/05 10:56:53;;;;;;;;;4.25;2.00;;;;;;;;5077104;27;47237;-80
2023/06/05 10:59:20;;;;;;;;;2.00;2.00;;;;;;;;5058918;27;45891;-81
2023/06/05 11:02:09;;;;;;;;;2.75;2.75;;;;;;;;5070751;27;45643;-82
2023/06/05 11:04:46;;;;;;;;;3.00;2.25;;;;;;;;5075520;27;45513;-81
2023/06/05 11:07:16;;;;;;;;;2.50;2.00;;;;;;;;5073134;27;46518;-81
2023/06/05 11:10:01;;;;;;;;;2.00;2.00;;;;;;;;5075121;27;45559;-82
2023/06/05 11:12:27;;;;;;;;;6.25;3.00;;;;;;;;5073313;27;45319;-81
2023/06/05 11:14:52;;;;;;;;;4.00;3.00;;;;;;;;5071183;27;45535;-82
2023/06/05 11:17:33;;;;;;;;;3.00;2.25;;;;;;;;5073050;27;46377;-82
2023/06/05 11:19:59;;;;;;;;;3.25;3.25;;;;;;;;5075398;27;45526;-82
2023/06/05 11:22:25;;;;;;;;;3.50;3.00;;;;;;;;5076545;27;45452;-81
2023/06/05 11:25:10;;;;;;;;;2.00;2.00;;;;;;;;5076793;27;45562;-81
2023/06/05 11:27:43;;;;;;;;;3.25;3.00;;;;;;;;5081878;27;46046;-81
2023/06/05 11:30:11;;;;;;;;;3.25;3.00;;;;;;;;5077805;27;45548;-83
2023/06/05 11:32:37;;;;;;;;;3.50;2.75;;;;;;;;5076117;27;45390;-82
2023/06/05 11:35:02;;;;;;;;;4.33;2.00;;;;;;;;5076624;27;45565;-84
2023/06/05 11:37:28;;;;;;;;;3.00;2.25;;;;;;;;5065530;27;47198;-84
2023/06/05 11:39:53;;;;;;;;;2.50;1.25;;;;;;;;5076942;27;45205;-87
2023/06/05 11:42:23;;;;;;;;;4.00;2.00;;;;;;;;5075217;27;45478;-84
2023/06/05 11:44:48;;;;;;;;;3.00;3.00;;;;;;;;5069753;27;45484;-84
2023/06/05 11:47:28;;;;;;;;;4.50;2.00;;;;;;;;5068697;27;46992;-86
2023/06/05 11:49:53;;;;;;;;;5.00;2.00;;;;;;;;5072680;27;45559;-85
2023/06/05 11:52:20;;;;;;;;;2.75;2.00;;;;;;;;5076514;27;45261;-84
2023/06/05 11:54:53;;;;;;;;;1.50;1.50;;;;;;;;5076619;27;45413;-84
2023/06/05 11:57:18;;;;;;;;;4.00;3.00;;;;;;;;5083679;27;47187;-82
2023/06/05 11:59:44;;;;;;;;;3.00;2.25;;;;;;;;5076185;27;45414;-81
2023/06/05 12:02:10;;;;;;;;;3.00;3.00;;;;;;;;5076161;27;45328;-82
2023/06/05 12:04:38;;;;;;;;;2.75;1.50;;;;;;;;5076053;27;45567;-81
2023/06/05 12:07:04;;;;;;;;;2.50;2.25;;;;;;;;5076357;27;46030;-82
2023/06/05 12:09:29;;;;;;;;;4.00;2.25;;;;;;;;5074500;27;46164;-80
2023/06/05 12:12:05;;;;;;;;;2.50;2.00;;;;;;;;5076317;27;45401;-83
2023/06/05 12:14:31;;;;;;;;;4.00;3.00;;;;;;;;5066960;27;45812;-83
2023/06/05 12:16:56;;;;;;;;;2.00;2.00;;;;;;;;5069024;27;46025;-82
2023/06/05 12:19:22;;;;;;;;;3.75;2.50;;;;;;;;5087425;27;45416;-82
2023/06/05 12:21:47;;;;;;;;;3.00;3.00;;;;;;;;5076028;27;45368;-81
2023/06/05 12:24:13;;;;;;;;;2.50;2.00;;;;;;;;5075672;27;45413;-83
2023/06/05 12:26:53;;;;;;;;;4.00;1.25;;;;;;;;5074406;27;46880;-83
2023/06/05 12:29:18;;;;;;;;;1.25;1.25;;;;;;;;5073373;27;45526;-84
2023/06/05 12:31:44;;;;;;;;;1.50;1.50;;;;;;;;5075175;27;45386;-84
2023/06/05 12:34:10;;;;;;;;;2.00;2.00;;;;;;;;5075329;27;45428;-83
2023/06/05 12:36:39;;;;;;;;;2.00;1.00;;;;;;;;5075379;27;46793;-82
2023/06/05 12:39:05;;;;;;;;;5.25;2.25;;;;;;;;5075636;27;45309;-82
2023/06/05 12:41:31;;;;;;;;;2.00;1.75;;;;;;;;5074915;27;45237;-82
2023/06/05 12:44:00;;;;;;;;;2.00;2.00;;;;;;;;5069409;27;46620;-82
2023/06/05 12:46:25;;;;;;;;;3.25;1.25;;;;;;;;5075231;27;46363;-83
2023/06/05 12:48:51;;;;;;;;;3.25;1.75;;;;;;;;5074809;27;45429;-84
2023/06/05 12:51:16;;;;;;;;;4.00;2.00;;;;;;;;5091610;27;45342;-83
2023/06/05 12:53:42;;;;;;;;;3.50;1.25;;;;;;;;5095737;27;45709;-83
2023/06/05 12:56:08;;;;;;;;;2.00;2.00;;;;;;;;5074151;27;45476;-82
2023/06/05 12:58:33;;;;;;;;;2.25;2.25;;;;;;;;5074038;27;45903;-83
2023/06/05 13:00:58;;;;;;;;;2.00;1.00;;;;;;;;5075613;27;45310;-84
2023/06/05 13:03:23;;;;;;;;;2.33;2.33;;;;;;;;5075019;27;45582;-82
2023/06/05 13:05:49;;;;;;;;;1.33;0.33;;;;;;;;5095667;27;46225;-83
2023/06/05 13:08:14;;;;;;;;;3.67;1.00;;;;;;;;5093538;27;45229;-83
2023/06/05 13:10:40;;;;;;;;;3.33;1.33;;;;;;;;5074918;27;45278;-83
2023/06/05 13:13:05;;;;;;;;;1.00;1.00;;;;;;;;5072975;27;45504;-82
2023/06/05 13:15:31;;;;;;;;;2.00;1.00;;;;;;;;5074612;27;46411;-83
2023/06/05 13:17:56;;;;;;;;;1.00;0.00;;;;;;;;5074313;27;45471;-83
2023/06/05 13:20:21;;;;;;;;;1.67;1.67;;;;;;;;5075336;27;45425;-83
2023/06/05 13:22:46;;;;;;;;;2.00;1.00;;;;;;;;5074392;27;45469;-82
2023/06/05 13:25:12;;;;;;;;;2.67;1.00;;;;;;;;5074525;27;47505;-84
2023/06/05 13:27:38;;;;;;;;;0.50;0.25;;;;;;;;5074234;27;45315;-81
2023/06/05 13:30:03;;;;;;;;;0.50;0.50;;;;;;;;5072529;27;45361;-83
2023/06/05 13:32:29;;;;;;;;;2.25;0.75;;;;;;;;5070942;27;45790;-82
2023/06/05 13:34:55;;;;;;;;;2.00;1.00;;;;;;;;5073438;27;46317;-83
2023/06/05 13:37:20;;;;;;;;;3.00;1.00;;;;;;;;5067550;27;45650;-82
2023/06/05 13:39:46;;;;;;;;;0.00;0.00;;;;;;;;5074724;27;45363;-83
2023/06/05 13:42:11;;;;;;;;;0.50;0.00;;;;;;;;5075839;27;45401;-82
2023/06/05 13:44:36;;;;;;;;;0.50;0.25;;;;;;;;5074331;27;46012;-82
2023/06/05 13:47:03;;;;;;;;;2.33;1.00;;;;;;;;5074316;28;45612;-83
2023/06/05 13:49:28;;;;;;;;;1.75;1.75;;;;;;;;5074340;27;45359;-81
2023/06/05 13:51:53;;;;;;;;;1.50;1.50;;;;;;;;5074130;27;45417;-80
2023/06/05 13:54:19;;;;;;;;;0.67;0.67;;;;;;;;5074587;27;46887;-81
2023/06/05 13:56:44;;;;;;;;;2.00;1.00;;;;;;;;5073865;27;45378;-81
2023/06/05 13:59:09;;;;;;;;;2.00;1.00;;;;;;;;5067679;27;45256;-81
2023/06/05 14:01:34;;;;;;;;;3.00;2.00;;;;;;;;5074466;27;45442;-82
2023/06/05 14:04:00;;;;;;;;;1.33;1.00;;;;;;;;5070174;27;46219;-81
2023/06/05 14:06:25;;;;;;;;;1.00;1.00;;;;;;;;5065766;28;45276;-83
2023/06/05 14:08:50;;;;;;;;;2.33;2.00;;;;;;;;5070000;27;45376;-83
2023/06/05 14:11:15;;;;;;;;;1.67;1.67;;;;;;;;5064934;27;45339;-83
2023/06/05 14:13:41;;;;;;;;;1.00;1.00;;;;;;;;5068885;27;47127;-82
2023/06/05 14:16:10;;;;;;;;;2.00;2.00;;;;;;;;5072411;27;45792;-83
2023/06/05 14:18:36;;;;;;;;;0.50;0.00;;;;;;;;5073653;27;45397;-81
2023/06/05 14:21:01;;;;;;;;;1.00;1.00;;;;;;;;5071322;27;45628;-82
2023/06/05 14:23:26;;;;;;;;;2.00;2.00;;;;;;;;5063510;27;46130;-82
2023/06/05 14:25:52;;;;;;;;;1.50;1.00;;;;;;;;5066533;27;45371;-81
2023/06/05 14:28:19;;;;;;;;;2.00;0.33;;;;;;;;5074230;27;45380;-82
2023/06/05 14:30:44;;;;;;;;;0.50;0.50;;;;;;;;5073529;28;45296;-82
2023/06/05 14:33:10;;;;;;;;;0.00;0.00;;;;;;;;5072926;27;46265;-82
2023/06/05 14:35:35;;;;;;;;;1.50;1.00;;;;;;;;5073655;27;45590;-82
2023/06/05 14:38:00;;;;;;;;;1.00;1.00;;;;;;;;5073369;27;45487;-83
2023/06/05 14:40:25;;;;;;;;;2.00;2.00;;;;;;;;5073546;27;45327;-81